^^
Datos históricos de la estación: Murcia-Puente Tocinos
Diario Informe para Enero 6, 2019 Unidades:  Ingés    Métrico   Ambas
Diario Semanal Mensual Anual
  Máxima: Mínima: Promedio:
Temperatura: 100.4 °F 76.8 °F 86.2 °F
Punto de rocio: 73.4 °F 61.2 °F 70.3 °F
Humedad: 88% 27.8% 64%
Velocidad viento: 12.5mph 0mph 4.9mph
Racha viento: 20mph - -
Viento- - ESE
Presión: 29.9 in 29.7 in -
Precipitación: 0 in    
 
 
Tabla de datos para Enero 6, 2019
Hora Temperatura Punto de rocio Presión Viento Velocidad viento Racha viento Humedad Intensidad lluvia(por hora) Nubes
00:04 80.1 °F 72.5 °F 29.9 in NE 5.9 mph 9 mph 78% 0 in
00:09 79.9 °F 72.5 °F 29.9 in NE 5.8 mph 9 mph 78% 0 in
00:14 79.9 °F 72.7 °F 29.9 in NE 5.4 mph 8.1 mph 78.5% 0 in
00:19 79.7 °F 72.7 °F 29.9 in NNE 5.4 mph 8 mph 79% 0 in
00:24 79.5 °F 72.5 °F 29.9 in NNE 5.2 mph 8.1 mph 79.2% 0 in
00:29 79.5 °F 72.7 °F 29.9 in NNE 5 mph 8 mph 80% 0 in
00:34 79.3 °F 72.7 °F 29.9 in NE 4.3 mph 8.5 mph 80% 0 in
00:39 79.2 °F 72.7 °F 29.9 in NE 4.4 mph 9 mph 80.8% 0 in
00:44 79.2 °F 72.9 °F 29.9 in NNE 5.2 mph 8 mph 81% 0 in
00:49 79.2 °F 72.9 °F 29.9 in NE 5 mph 8.1 mph 81% 0 in
00:54 79 °F 72.7 °F 29.9 in NNE 4.3 mph 9.7 mph 81% 0 in
00:59 79 °F 72.9 °F 29.9 in NNE 4.5 mph 10 mph 81.8% 0 in
01:04 79 °F 73 °F 29.9 in NNE 5.2 mph 8.5 mph 82% 0 in
01:09 78.8 °F 72.9 °F 29.9 in NNE 5.1 mph 9 mph 82% 0 in
01:14 78.8 °F 72.9 °F 29.9 in NE 4.7 mph 9.2 mph 82% 0 in
01:19 78.8 °F 73 °F 29.9 in NE 4.7 mph 9 mph 82.6% 0 in
01:24 78.6 °F 73 °F 29.9 in NE 4.7 mph 8.5 mph 83% 0 in
01:29 78.6 °F 73 °F 29.9 in NE 4.7 mph 9 mph 83% 0 in
01:34 78.4 °F 72.9 °F 29.9 in NNE 4.3 mph 7 mph 83% 0 in
01:39 78.4 °F 73 °F 29.9 in NNE 4.1 mph 7 mph 83.6% 0 in
01:44 78.4 °F 73.2 °F 29.9 in NNE 3.1 mph 7 mph 84% 0 in
01:49 78.3 °F 73 °F 29.9 in NNE 3.3 mph 7 mph 84% 0 in
01:54 78.3 °F 73 °F 29.9 in NNE 4.3 mph 7 mph 84% 0 in
01:59 78.3 °F 73 °F 29.9 in NNE 4.2 mph 7 mph 84% 0 in
02:04 78.3 °F 73 °F 29.9 in NNE 4 mph 7 mph 84.3% 0 in
02:09 78.3 °F 73.4 °F 29.9 in NNE 3.9 mph 6 mph 85% 0 in
02:14 78.3 °F 73.2 °F 29.9 in NNE 3.6 mph 6.2 mph 84.9% 0 in
02:19 78.1 °F 73.2 °F 29.9 in NE 3.5 mph 6.2 mph 85% 0 in
02:24 78.1 °F 73.2 °F 29.9 in NE 3.1 mph 6.2 mph 85% 0 in
02:29 78.1 °F 73.2 °F 29.9 in NE 3.2 mph 6 mph 85% 0 in
02:34 78.1 °F 73.2 °F 29.9 in NNE 4 mph 6.9 mph 85% 0 in
02:39 78.1 °F 73 °F 29.9 in NNE 4 mph 7.4 mph 85% 0 in
02:44 77.9 °F 72.9 °F 29.9 in NNE 4.3 mph 7 mph 85% 0 in
02:49 77.7 °F 73 °F 29.9 in NNE 4.3 mph 7 mph 85.6% 0 in
02:54 77.7 °F 73.2 °F 29.9 in NNE 4 mph 6 mph 86% 0 in
02:59 77.7 °F 73.2 °F 29.9 in NE 3.8 mph 6.9 mph 86% 0 in
03:04 77.7 °F 73.2 °F 29.9 in NE 2.9 mph 7 mph 86% 0 in
03:09 77.7 °F 73.2 °F 29.9 in NE 2.7 mph 5 mph 86% 0 in
03:14 77.7 °F 73.2 °F 29.9 in North 2 mph 5 mph 86% 0 in
03:19 77.7 °F 73.2 °F 29.9 in NNE 2 mph 5.8 mph 86% 0 in
03:24 77.7 °F 73.2 °F 29.9 in North 2 mph 6 mph 86% 0 in
03:29 77.7 °F 73.2 °F 29.9 in NNE 1.9 mph 5 mph 86% 0 in
03:34 77.7 °F 73.2 °F 29.9 in NNE 1.4 mph 5.2 mph 86% 0 in
03:39 77.7 °F 73.2 °F 29.9 in NO 1.5 mph 5 mph 86% 0 in
03:44 77.7 °F 73.2 °F 29.9 in NO 2 mph 5 mph 86% 0 in
03:49 77.7 °F 73.2 °F 29.9 in NO 2 mph 4 mph 86% 0 in
03:54 77.5 °F 73 °F 29.9 in NO 1.8 mph 3 mph 86% 0 in
03:59 77.5 °F 73 °F 29.9 in NO 1.4 mph 2.9 mph 86% 0 in
04:04 77.5 °F 73 °F 29.9 in Calm   3 mph 86% 0 in
04:09 77.5 °F 73.2 °F 29.9 in Calm   4.6 mph 86.6% 0 in
04:14 77.5 °F 73.4 °F 29.9 in Calm   5 mph 87% 0 in
04:19 77.5 °F 73.4 °F 29.9 in ONO 0.2 mph 3.5 mph 87% 0 in
04:24 77.5 °F 73.4 °F 29.9 in ONO 1.4 mph 3 mph 87% 0 in
04:29 77.5 °F 73.4 °F 29.9 in ONO 1.2 mph   87% 0 in
04:34 77.5 °F 73.4 °F 29.9 in Calm     87% 0 in
04:39 77.5 °F 73.4 °F 29.9 in Calm   4.6 mph 87% 0 in
04:44 77.5 °F 73.4 °F 29.9 in Calm   5 mph 87% 0 in
04:49 77.5 °F 73.4 °F 29.9 in NE 0.2 mph 3 mph 87% 0 in
04:54 77.5 °F 73.4 °F 29.9 in NE 1.4 mph 2 mph 87% 0 in
04:59 77.5 °F 73.4 °F 29.9 in NE 1.1 mph   87% 0 in
05:04 77.5 °F 73.4 °F 29.9 in Calm     87% 0 in
05:09 77.5 °F 73.4 °F 29.9 in Calm     87% 0 in
05:14 77.5 °F 73.4 °F 29.9 in Calm   4.6 mph 87% 0 in
05:19 77.5 °F 73.4 °F 29.9 in NNO 0.2 mph 5 mph 87% 0 in
05:24 77.5 °F 73.4 °F 29.8 in NO 1.4 mph 5.4 mph 87% 0 in
05:29 77.5 °F 73.4 °F 29.8 in NO 1.5 mph 6 mph 87% 0 in
05:34 77.4 °F 73.2 °F 29.8 in ONO 2 mph 6.2 mph 87% 0 in
05:39 77.4 °F 73 °F 29.8 in NO 2.2 mph 6 mph 87% 0 in
05:44 77.2 °F 73 °F 29.8 in NO 3.1 mph 5 mph 87% 0 in
05:49 77.2 °F 73 °F 29.8 in NNO 2.9 mph 5 mph 87% 0 in
05:54 77.2 °F 73 °F 29.8 in NNO 1.8 mph 4 mph 87% 0 in
05:59 77.2 °F 73 °F 29.8 in NNO 1.4 mph 2 mph 87% 0 in
06:04 77.2 °F 72.9 °F 29.9 in Calm     87% 0 in
06:09 77.2 °F 73.2 °F 29.9 in Calm   2.4 mph 88% 0 in
06:14 77 °F 72.9 °F 29.9 in Calm   5.8 mph 87.2% 0 in
06:19 76.8 °F 72.7 °F 29.9 in SSE 0.5 mph 6 mph 87% 0 in
06:24 76.8 °F 73 °F 29.8 in SSE 3.1 mph 5 mph 87.9% 0 in
06:29 76.8 °F 73 °F 29.8 in Sur 3 mph 5 mph 88% 0 in
06:34 76.8 °F 73 °F 29.8 in Sur 2.4 mph 5 mph 88% 0 in
06:39 77 °F 73.2 °F 29.8 in Sur 2.2 mph 4.6 mph 88% 0 in
06:44 77.2 °F 73 °F 29.8 in SO 1.4 mph 5 mph 87.4% 0 in
06:49 77.2 °F 73 °F 29.8 in SO 1.6 mph 5 mph 87% 0 in
06:54 77.2 °F 73 °F 29.8 in SSO 2.4 mph 5.8 mph 87% 0 in
06:59 77.4 °F 72.9 °F 29.8 in Sur 2.6 mph 6 mph 86.3% 0 in
07:04 77.4 °F 72.9 °F 29.8 in SO 3.6 mph 6 mph 86% 0 in
07:09 77.4 °F 72.9 °F 29.8 in SO 3.6 mph 6 mph 86% 0 in
07:14 77.5 °F 72.9 °F 29.8 in SO 3.6 mph 6 mph 86% 0 in
07:19 77.5 °F 72.9 °F 29.8 in Oeste 3.5 mph 6 mph 85.7% 0 in
07:24 77.4 °F 72.7 °F 29.8 in ONO 2.9 mph 5 mph 85.6% 0 in
07:29 77.4 °F 72.9 °F 29.8 in ONO 2.7 mph 5 mph 86% 0 in
07:34 77.4 °F 72.9 °F 29.8 in ONO 1.8 mph 5 mph 86% 0 in
07:39 77.2 °F 72.7 °F 29.8 in ONO 1.7 mph 4 mph 86% 0 in
07:44 77.2 °F 72.7 °F 29.8 in ONO 1.4 mph 4.6 mph 86% 0 in
07:49 77.2 °F 72.7 °F 29.9 in ONO 1.5 mph 5 mph 86% 0 in
07:54 77.4 °F 72.7 °F 29.9 in Oeste 2 mph 5.8 mph 86% 0 in
07:59 77.4 °F 72.7 °F 29.9 in SSE 2.2 mph 6 mph 85.6% 0 in
08:04 77.4 °F 72.7 °F 29.9 in Sur 3.1 mph 5.9 mph 85% 0 in
08:09 77.5 °F 72.7 °F 29.9 in SSE 3.3 mph 6.2 mph 84.9% 0 in
08:14 77.7 °F 72.5 °F 29.9 in SSE 4.3 mph 6 mph 84% 0 in
08:19 77.7 °F 72.5 °F 29.9 in SSE 4.2 mph 6 mph 84% 0 in
08:24 78.1 °F 72.9 °F 29.9 in SSE 3.6 mph 5 mph 84% 0 in
08:29 78.3 °F 72.7 °F 29.9 in SSE 3.5 mph 5.2 mph 83.2% 0 in
08:34 78.3 °F 72.7 °F 29.9 in SE 2.9 mph 5 mph 83% 0 in
08:39 78.4 °F 72.9 °F 29.9 in ESE 2.9 mph 5.8 mph 83% 0 in
08:44 78.4 °F 72.9 °F 29.9 in Este 3.1 mph 6 mph 83% 0 in
08:49 78.4 °F 72.9 °F 29.9 in Este 3.1 mph 5 mph 83% 0 in
08:54 78.8 °F 73.2 °F 29.9 in Este 3.1 mph 5 mph 82.9% 0 in
08:59 79.3 °F 73.2 °F 29.9 in Este 2.4 mph 3 mph 81.4% 0 in
09:04 80.1 °F 73.2 °F 29.9 in Calm   1 mph 80.1% 0 in
09:09 80.4 °F 73.2 °F 29.9 in Calm     78.4% 0 in
09:14 81.1 °F 73.2 °F 29.9 in Calm     77.3% 0 in
09:19 81.5 °F 73.4 °F 29.9 in Calm   3.5 mph 76.4% 0 in
09:24 81.9 °F 73.2 °F 29.9 in Calm   4.7 mph 75.1% 0 in
09:29 82 °F 73 °F 29.9 in NO 0.4 mph 6.9 mph 74.4% 0 in
09:34 81.9 °F 73 °F 29.9 in NNO 2.4 mph 7 mph 74.6% 0 in
09:39 81.9 °F 73.2 °F 29.9 in ENE 2.3 mph 5 mph 75% 0 in
09:44 82 °F 73.2 °F 29.9 in NNE 1.8 mph 5 mph 75% 0 in
09:49 82.4 °F 73.2 °F 29.9 in North 1.7 mph 4.7 mph 74.2% 0 in
09:54 82.6 °F 73.2 °F 29.9 in ONO 1.4 mph 5 mph 73.7% 0 in
09:59 82.2 °F 73.2 °F 29.9 in ONO 1.7 mph 5 mph 74% 0 in
10:04 82 °F 73.2 °F 29.9 in ONO 2.9 mph 5 mph 74.7% 0 in
10:09 82.2 °F 73.4 °F 29.9 in North 2.8 mph 5.8 mph 74.5% 0 in
10:14 82.6 °F 73.4 °F 29.9 in North 2.4 mph 6.4 mph 74.2% 0 in
10:19 82.6 °F 73 °F 29.9 in Oeste 2.4 mph 7 mph 73% 0 in
10:24 82.6 °F 73 °F 29.9 in OSO 2.4 mph 7 mph 73% 0 in
10:29 82.6 °F 73 °F 29.9 in ONO 2.6 mph 9.2 mph 73% 0 in
10:34 82.6 °F 73 °F 29.9 in NO 3.6 mph 9.2 mph 73% 0 in
10:39 82.6 °F 73 °F 29.9 in North 3.7 mph 8 mph 73.3% 0 in
10:44 82.9 °F 73.2 °F 29.9 in ESE 4 mph 6 mph 72.4% 0 in
10:49 83.7 °F 73.4 °F 29.9 in ESE 3.3 mph 3.1 mph 71.1% 0 in
10:54 84.2 °F 73 °F 29.9 in Calm   5.2 mph 69.1% 0 in
10:59 84.6 °F 73 °F 29.9 in Este 0.7 mph 5 mph 68.6% 0 in
11:04 84.6 °F 72.9 °F 29.9 in ENE 3.1 mph 6.9 mph 68.2% 0 in
11:09 84.6 °F 72.7 °F 29.9 in NNE 3.3 mph 7.4 mph 67.8% 0 in
11:14 84.7 °F 72.9 °F 29.9 in ENE 4 mph 7 mph 68% 0 in
11:19 84.9 °F 72.7 °F 29.9 in NNE 3.9 mph 6.9 mph 66.8% 0 in
11:24 85.3 °F 72.3 °F 29.9 in ONO 3.1 mph 7 mph 65.3% 0 in
11:29 85.3 °F 71.8 °F 29.9 in Oeste 3.1 mph 6 mph 64.3% 0 in
11:34 85.5 °F 71.8 °F 29.9 in Oeste 3.1 mph 6 mph 63.8% 0 in
11:39 85.6 °F 71.6 °F 29.9 in SO 3 mph 6.2 mph 62.9% 0 in
11:44 86.2 °F 72 °F 29.9 in NNO 2.4 mph 6.9 mph 62.6% 0 in
11:49 86.5 °F 71.6 °F 29.9 in ONO 2.6 mph 7 mph 61.1% 0 in
11:54 86.7 °F 71.6 °F 29.9 in OSO 3.6 mph 6 mph 61% 0 in
11:59 86.9 °F 71.6 °F 29.9 in Oeste 3.5 mph 6.2 mph 60.6% 0 in
12:04 87.3 °F 71.6 °F 29.9 in NNE 2.9 mph 6 mph 59.6% 0 in
12:09 88 °F 71.2 °F 29.9 in ENE 2.9 mph 5.8 mph 57.8% 0 in
12:14 88.7 °F 71.1 °F 29.9 in Este 2.9 mph 6.9 mph 56% 0 in
12:19 89.2 °F 70.9 °F 29.9 in ONO 2.8 mph 7 mph 54.9% 0 in
12:24 89.2 °F 70.9 °F 29.9 in NNE 2.4 mph 7 mph 54.7% 0 in
12:29 89.6 °F 71.2 °F 29.9 in ENE 2.5 mph 7 mph 54.9% 0 in
12:34 90.1 °F 71.2 °F 29.9 in ENE 3.1 mph 5.9 mph 54.2% 0 in
12:39 90.7 °F 71.2 °F 29.9 in NNE 3 mph 7.4 mph 53.1% 0 in
12:44 90.7 °F 71.2 °F 29.9 in North 2.9 mph 7 mph 53% 0 in
12:49 91 °F 71.2 °F 29.9 in NNE 3 mph 8.1 mph 52.5% 0 in
12:54 91.2 °F 71.1 °F 29.8 in NE 4 mph 8.1 mph 52% 0 in
12:59 91.4 °F 71.1 °F 29.8 in NNE 4.1 mph 8 mph 51.6% 0 in
13:04 91.8 °F 71.2 °F 29.8 in NNE 4.3 mph 7 mph 51.2% 0 in
13:09 92.1 °F 71.1 °F 29.8 in North 4.2 mph 8.1 mph 50.3% 0 in
13:14 92.7 °F 71.1 °F 29.8 in NE 3.6 mph 8 mph 49.7% 0 in
13:19 93 °F 70.5 °F 29.8 in NNE 3.6 mph 8.1 mph 48.1% 0 in
13:24 93.4 °F 70.5 °F 29.8 in North 3.6 mph 8 mph 47.6% 0 in
13:29 93.6 °F 71.1 °F 29.8 in NE 3.7 mph 9.2 mph 48% 0 in
13:34 93.7 °F 70.2 °F 29.8 in NNE 4.3 mph 10.4 mph 46.4% 0 in
13:39 93.7 °F 70.5 °F 29.8 in ENE 4.3 mph 10 mph 46.9% 0 in
13:44 93.9 °F 70.2 °F 29.8 in NNE 4.7 mph 9.2 mph 46.4% 0 in
13:49 94.3 °F 69.3 °F 29.8 in ENE 4.7 mph 9 mph 44.4% 0 in
13:54 94.6 °F 69.8 °F 29.8 in NNE 4.7 mph 10.4 mph 44.6% 0 in
13:59 95.2 °F 69.3 °F 29.8 in NE 4.8 mph 10.4 mph 43.1% 0 in
14:04 95.4 °F 68.9 °F 29.8 in NNE 5.2 mph 10 mph 42.5% 0 in
14:09 95.5 °F 68.7 °F 29.8 in NE 5.2 mph 10 mph 41.9% 0 in
14:14 95.7 °F 68.2 °F 29.8 in NE 5.2 mph 10 mph 40.9% 0 in
14:19 96.1 °F 68 °F 29.8 in NNE 5.3 mph 13 mph 40.1% 0 in
14:24 96.4 °F 67.3 °F 29.8 in NE 5.9 mph 13 mph 38.8% 0 in
14:29 96.8 °F 66.2 °F 29.8 in NNE 5.8 mph 12 mph 37% 0 in
14:34 97.3 °F 66.4 °F 29.8 in NNE 5.2 mph 12 mph 36.7% 0 in
14:39 97.5 °F 66 °F 29.8 in NNE 5.2 mph 12 mph 36% 0 in
14:44 97.9 °F 66.2 °F 29.8 in ENE 5.4 mph 11 mph 35.8% 0 in
14:49 98.2 °F 66 °F 29.8 in NNE 5.2 mph 11.2 mph 35.2% 0 in
14:54 98.8 °F 65.5 °F 29.8 in NE 4 mph 12 mph 33.8% 0 in
14:59 99 °F 65.7 °F 29.8 in NE 4.4 mph 10 mph 33.9% 0 in
15:04 99.1 °F 65.5 °F 29.8 in NE 5.9 mph 10.4 mph 33.5% 0 in
15:09 99.1 °F 65.8 °F 29.8 in NE 5.8 mph 11.8 mph 34% 0 in
15:14 99.1 °F 66 °F 29.8 in NE 5.4 mph 12 mph 34.2% 0 in
15:19 99.1 °F 66.6 °F 29.8 in NE 5.4 mph 11.8 mph 34.8% 0 in
15:24 99.5 °F 66.2 °F 29.8 in ENE 5.4 mph 12 mph 34.1% 0 in
15:29 99.9 °F 65.8 °F 29.8 in ONO 5.5 mph 15 mph 33.4% 0 in
15:34 99.9 °F 65.7 °F 29.8 in SSE 6.2 mph 15 mph 33% 0 in
15:39 100.2 °F 65.7 °F 29.8 in SE 6.3 mph 17.3 mph 32.7% 0 in
15:44 100.2 °F 65.1 °F 29.8 in ESE 6.9 mph 17 mph 32% 0 in
15:49 99.9 °F 65.1 °F 29.8 in ESE 7.5 mph 17.3 mph 32.5% 0 in
15:54 99.7 °F 65.5 °F 29.8 in ESE 10.2 mph 17 mph 33% 0 in
15:59 99.7 °F 65.5 °F 29.8 in SSE 9.8 mph 15 mph 32.9% 0 in
16:04 99.9 °F 65.5 °F 29.8 in SE 8.1 mph 12 mph 33% 0 in
16:09 100 °F 65.5 °F 29.8 in SE 8 mph 16.1 mph 32.6% 0 in
16:14 100 °F 64.9 °F 29.8 in SE 7.4 mph 16 mph 32% 0 in
16:19 100.2 °F 64.9 °F 29.8 in ESE 7.6 mph 16.8 mph 32% 0 in
16:24 100 °F 64.8 °F 29.8 in ESE 8.5 mph 17.5 mph 31.9% 0 in
16:29 99.9 °F 64.2 °F 29.8 in ESE 8.8 mph 18.4 mph 31.4% 0 in
16:34 100 °F 63.7 °F 29.8 in ESE 10.7 mph 18 mph 30.6% 0 in
16:39 100 °F 62.8 °F 29.8 in ESE 10.6 mph 17.5 mph 29.7% 0 in
16:44 100 °F 62.1 °F 29.8 in SE 10 mph 17.5 mph 29.1% 0 in
16:49 100.4 °F 61.5 °F 29.8 in ESE 9.9 mph 17 mph 28.3% 0 in
16:54 100.2 °F 61.2 °F 29.7 in ESE 9.2 mph 19.7 mph 27.8% 0 in
16:59 100 °F 61.2 °F 29.7 in ESE 9.5 mph 20 mph 28% 0 in
17:04 100.2 °F 61.2 °F 29.7 in ESE 10.7 mph 16.1 mph 28% 0 in
17:09 100.2 °F 61.2 °F 29.7 in ESE 10.6 mph 16.3 mph 28% 0 in
17:14 100 °F 61.2 °F 29.7 in ESE 10 mph 16.1 mph 28% 0 in
17:19 100 °F 62.1 °F 29.7 in ESE 9.9 mph 16 mph 28.9% 0 in
17:24 100.2 °F 62.8 °F 29.7 in ESE 9.7 mph 18.4 mph 29.7% 0 in
17:29 100.2 °F 62.2 °F 29.7 in ESE 9.8 mph 18 mph 29% 0 in
17:34 100 °F 63.1 °F 29.7 in ESE 10 mph 16.1 mph 30.1% 0 in
17:39 99.9 °F 63.9 °F 29.7 in ESE 10 mph 16 mph 31% 0 in
17:44 100 °F 63.5 °F 29.7 in ESE 10 mph 16 mph 30.5% 0 in
17:49 100.2 °F 63 °F 29.7 in ESE 9.8 mph 14 mph 29.7% 0 in
17:54 100.2 °F 62.2 °F 29.7 in ESE 8.5 mph 16.1 mph 29% 0 in
17:59 100.2 °F 63.7 °F 29.7 in ESE 8.8 mph 16.3 mph 30.5% 0 in
18:04 100.2 °F 64.2 °F 29.7 in ESE 9.7 mph 16 mph 31.2% 0 in
18:09 100 °F 65.5 °F 29.7 in ESE 9.7 mph 16.3 mph 32.8% 0 in
18:14 99.7 °F 66.2 °F 29.7 in ESE 9.7 mph 16.1 mph 33.8% 0 in
18:19 99.3 °F 66.9 °F 29.7 in ESE 9.8 mph 16.3 mph 35% 0 in
18:24 99.1 °F 67.3 °F 29.7 in SE 10 mph 16.8 mph 35.8% 0 in
18:29 99.1 °F 67.5 °F 29.7 in ESE 9.9 mph 17 mph 36% 0 in
18:34 98.8 °F 67.3 °F 29.7 in ESE 9.2 mph 18.5 mph 36% 0 in
18:39 98.2 °F 66.7 °F 29.7 in ESE 9.8 mph 19 mph 36% 0 in
18:44 98.1 °F 66.6 °F 29.7 in ESE 12.5 mph 18 mph 36% 0 in
18:49 97.9 °F 66.4 °F 29.7 in ESE 12.1 mph 17 mph 36% 0 in
18:54 97.9 °F 66.4 °F 29.7 in ESE 10.2 mph 16.1 mph 36% 0 in
18:59 97.9 °F 66.4 °F 29.7 in ESE 10.1 mph 16.1 mph 36% 0 in
19:04 97.5 °F 66.6 °F 29.7 in ESE 9.7 mph 16.3 mph 36.5% 0 in
19:09 97.2 °F 66.6 °F 29.7 in ESE 9.9 mph 16.1 mph 37% 0 in
19:14 97.3 °F 66.7 °F 29.7 in ESE 10.7 mph 16.1 mph 37% 0 in
19:19 97.2 °F 66 °F 29.7 in ESE 10.4 mph 16.1 mph 36.3% 0 in
19:24 97.2 °F 66.2 °F 29.7 in ESE 9.2 mph 16 mph 36.5% 0 in
19:29 97 °F 65.8 °F 29.7 in ESE 9.2 mph 15 mph 36.1% 0 in
19:34 97 °F 65.5 °F 29.7 in ESE 9.2 mph 15 mph 36% 0 in
19:39 96.6 °F 64.9 °F 29.7 in ESE 9.1 mph 14 mph 35.5% 0 in
19:44 96.6 °F 64.8 °F 29.7 in ESE 8.5 mph 17.3 mph 35.4% 0 in
19:49 96.3 °F 64.9 °F 29.7 in ESE 8.7 mph 17.5 mph 36% 0 in
19:54 96.1 °F 64.8 °F 29.7 in ESE 9.7 mph 17 mph 36% 0 in
19:59 95.9 °F 64.6 °F 29.7 in ESE 9.2 mph 15 mph 36% 0 in
20:04 95.7 °F 64.4 °F 29.7 in ESE 7.4 mph 14 mph 35.9% 0 in
20:09 95.5 °F 64.2 °F 29.7 in ESE 7.2 mph 14 mph 35.9% 0 in
20:14 95.4 °F 63 °F 29.7 in ESE 6.4 mph 10.4 mph 34.5% 0 in
20:19 95.4 °F 62.8 °F 29.7 in Este 6.1 mph 10 mph 34.4% 0 in
20:24 95 °F 64.6 °F 29.7 in North 4.7 mph 7 mph 36.8% 0 in
20:29 94.3 °F 66.7 °F 29.7 in NE 4.8 mph 16.3 mph 40.7% 0 in
20:34 92.3 °F 68 °F 29.7 in NNE 5.4 mph 16.1 mph 45.1% 0 in
20:39 90.7 °F 68.5 °F 29.7 in NNE 6.3 mph 18.4 mph 48.2% 0 in
20:44 89.6 °F 69.4 °F 29.7 in NNE 10.2 mph 19.2 mph 51.7% 0 in
20:49 88.9 °F 70.2 °F 29.7 in NNE 10.4 mph 20 mph 54.1% 0 in
20:54 88.2 °F 70.7 °F 29.7 in NE 11.4 mph 20 mph 56.3% 0 in
20:59 87.6 °F 71.1 °F 29.7 in NNE 11.1 mph 17 mph 58% 0 in
21:04 87.3 °F 71.6 °F 29.7 in NNE 10.2 mph 16 mph 59.8% 0 in
21:09 86.7 °F 71.6 °F 29.7 in NE 10.1 mph 16.1 mph 61% 0 in
21:14 86.4 °F 71.8 °F 29.7 in NE 9.2 mph 17.3 mph 61.9% 0 in
21:19 86 °F 71.4 °F 29.7 in NE 9.4 mph 17 mph 62% 0 in
21:24 85.6 °F 71.2 °F 29.7 in NE 10.2 mph 16.1 mph 62% 0 in
21:29 85.6 °F 71.2 °F 29.7 in NE 10 mph 16 mph 62.3% 0 in
21:34 85.3 °F 71.4 °F 29.8 in NE 9.2 mph 15 mph 63.1% 0 in
21:39 84.9 °F 71.4 °F 29.8 in NE 9.1 mph 14 mph 64% 0 in
21:44 84.7 °F 71.2 °F 29.8 in NE 8.5 mph 13.8 mph 64% 0 in
21:49 84.7 °F 71.2 °F 29.8 in NE 8.3 mph 15.2 mph 64% 0 in
21:54 84.7 °F 71.4 °F 29.8 in NE 7.6 mph 15 mph 64.5% 0 in
21:59 84.6 °F 71.6 °F 29.8 in NNE 7.6 mph 13 mph 65.3% 0 in
22:04 84.2 °F 71.6 °F 29.8 in NNE 7.6 mph 13 mph 66% 0 in
22:09 84 °F 71.6 °F 29.8 in NNE 7.4 mph 12 mph 66.7% 0 in
22:14 83.8 °F 71.6 °F 29.8 in NNE 6.2 mph 10.4 mph 67.1% 0 in
22:19 83.7 °F 72 °F 29.8 in NNE 6.1 mph 10.2 mph 68% 0 in
22:24 83.5 °F 71.8 °F 29.8 in NNE 5.4 mph 11.5 mph 68% 0 in
22:29 83.3 °F 71.6 °F 29.8 in NE 5.7 mph 12 mph 68% 0 in
22:34 83.3 °F 71.6 °F 29.8 in NNE 7.4 mph 12 mph 68% 0 in
22:39 83.1 °F 71.6 °F 29.8 in NNE 7.1 mph 10.4 mph 68.1% 0 in
22:44 82.9 °F 71.8 °F 29.8 in NNE 5.9 mph 10 mph 69% 0 in
22:49 82.8 °F 72 °F 29.8 in NNE 5.8 mph 10 mph 70% 0 in
22:54 82.6 °F 72 °F 29.8 in NNE 5.4 mph 11.2 mph 70.2% 0 in
22:59 82.4 °F 72 °F 29.8 in NNE 5.5 mph 12 mph 71% 0 in
23:04 82 °F 72.1 °F 29.8 in NNE 5.9 mph 13.8 mph 71.6% 0 in
23:09 81.9 °F 72 °F 29.8 in NE 6.3 mph 14 mph 72% 0 in
23:14 81.9 °F 72 °F 29.8 in NE 8.5 mph 14 mph 72% 0 in
23:19 81.9 °F 72 °F 29.8 in NE 8.2 mph 12 mph 72% 0 in
23:24 81.7 °F 71.8 °F 29.8 in NNE 6.9 mph 12 mph 72% 0 in
23:29 81.7 °F 71.8 °F 29.8 in NNE 6.8 mph 12 mph 72% 0 in
23:34 81.7 °F 71.8 °F 29.8 in NE 6.2 mph 10.4 mph 72% 0 in
23:39 81.7 °F 71.6 °F 29.8 in NNE 6 mph 10 mph 71.3% 0 in
23:44 81.9 °F 71.4 °F 29.8 in NNE 5.2 mph 9.2 mph 71% 0 in
23:49 81.7 °F 71.6 °F 29.8 in North 5.2 mph 9.2 mph 71.4% 0 in
23:54 81.7 °F 71.8 °F 29.8 in North 5.2 mph 9 mph 72% 0 in
23:59 81.5 °F 71.4 °F 29.8 in NNE 5 mph 9 mph 71.6% 0 in
Murcia-Puente Tocinos, España
Compliments of Weather Underground - 3 mb

La estación de MeteoMurcia.com, publica sus datos en los siguientes proyectos:

Weather Underground PWS IMURCIAP2 Meteoclimatic www.awekas.at

W3Counter
Web Analytics